createdAt,value
2019-03-27T00:02:09.861Z,6.00
2019-03-27T00:04:40.489Z,6.00
2019-03-27T00:07:08.911Z,6.00
2019-03-27T00:09:37.341Z,5.90
2019-03-27T00:12:05.793Z,5.90
2019-03-27T00:14:34.230Z,5.90
2019-03-27T00:17:02.735Z,5.80
2019-03-27T00:19:31.178Z,5.80
2019-03-27T00:21:59.627Z,5.80
2019-03-27T00:24:28.053Z,5.80
2019-03-27T00:26:56.554Z,5.80
2019-03-27T00:29:24.974Z,5.80
2019-03-27T00:31:53.439Z,5.80
2019-03-27T00:34:21.871Z,5.90
2019-03-27T00:36:50.301Z,5.80
2019-03-27T00:39:18.755Z,5.90
2019-03-27T00:41:49.969Z,5.90
2019-03-27T00:44:18.442Z,5.90
2019-03-27T00:46:46.938Z,5.90
2019-03-27T00:49:15.419Z,5.90
2019-03-27T00:51:43.907Z,5.90
2019-03-27T00:54:15.258Z,5.90
2019-03-27T00:56:43.710Z,5.90
2019-03-27T00:59:12.157Z,6.00
2019-03-27T01:01:40.623Z,6.00
2019-03-27T01:04:09.061Z,6.00
2019-03-27T01:06:37.507Z,6.00
2019-03-27T01:09:06.093Z,5.90
2019-03-27T01:11:34.539Z,6.00
2019-03-27T01:14:02.986Z,6.00
2019-03-27T01:16:31.431Z,6.00
2019-03-27T01:18:59.871Z,6.00
2019-03-27T01:21:28.310Z,6.00
2019-03-27T01:23:56.754Z,6.10
2019-03-27T01:26:25.183Z,6.10
2019-03-27T01:28:53.639Z,6.00
2019-03-27T01:31:22.075Z,6.00
2019-03-27T01:33:50.502Z,6.00
2019-03-27T01:36:18.956Z,6.00
2019-03-27T01:38:47.395Z,6.00
2019-03-27T01:41:15.834Z,6.00
2019-03-27T01:43:44.270Z,6.10
2019-03-27T01:46:12.729Z,6.10
2019-03-27T01:48:41.226Z,6.10
2019-03-27T01:51:09.690Z,6.10
2019-03-27T01:53:38.113Z,6.10
2019-03-27T01:56:06.547Z,6.10
2019-03-27T01:58:35.063Z,6.10
2019-03-27T02:01:04.659Z,6.10
2019-03-27T02:03:33.167Z,6.10
2019-03-27T02:06:01.615Z,6.10
2019-03-27T02:08:30.055Z,6.10
2019-03-27T02:10:58.501Z,6.10
2019-03-27T02:13:26.936Z,6.10
2019-03-27T02:16:06.352Z,6.10
2019-03-27T02:18:25.526Z,6.10
2019-03-27T02:20:53.966Z,6.10
2019-03-27T02:23:22.415Z,6.00
2019-03-27T02:25:50.889Z,6.00
2019-03-27T02:28:19.405Z,6.00
2019-03-27T02:30:47.838Z,6.00
2019-03-27T02:33:17.774Z,6.00
2019-03-27T02:35:46.194Z,6.00
2019-03-27T02:38:14.630Z,6.00
2019-03-27T02:40:43.078Z,5.90
2019-03-27T02:43:11.519Z,5.90
2019-03-27T02:45:39.982Z,5.90
2019-03-27T02:48:08.414Z,5.90
2019-03-27T02:50:36.843Z,5.80
2019-03-27T02:53:05.293Z,5.80
2019-03-27T02:55:33.816Z,5.80
2019-03-27T02:58:02.342Z,5.80
2019-03-27T03:00:30.850Z,5.80
2019-03-27T03:02:59.354Z,5.80
2019-03-27T03:05:27.796Z,5.80
2019-03-27T03:07:56.241Z,5.80
2019-03-27T03:10:24.683Z,5.80
2019-03-27T03:12:59.083Z,5.80
2019-03-27T03:15:27.527Z,5.80
2019-03-27T03:17:55.956Z,5.80
2019-03-27T03:20:24.413Z,5.80
2019-03-27T03:22:54.391Z,5.80
2019-03-27T03:25:22.842Z,5.80
2019-03-27T03:27:51.274Z,5.80
2019-03-27T03:30:19.782Z,5.80
2019-03-27T03:32:48.234Z,5.80
2019-03-27T03:35:16.764Z,5.70
2019-03-27T03:37:45.273Z,5.70
2019-03-27T03:40:15.822Z,5.70
2019-03-27T03:42:44.323Z,5.70
2019-03-27T03:45:13.308Z,5.70
2019-03-27T03:47:43.286Z,5.70
2019-03-27T03:50:23.770Z,5.70
2019-03-27T03:52:52.271Z,5.60
2019-03-27T03:55:20.846Z,5.60
2019-03-27T03:57:49.526Z,5.60
2019-03-27T04:00:18.036Z,5.60
2019-03-27T04:02:47.084Z,5.50
2019-03-27T04:05:18.618Z,5.50
2019-03-27T04:07:47.050Z,5.50
2019-03-27T04:10:15.500Z,5.50
2019-03-27T04:12:43.938Z,5.40
2019-03-27T04:15:12.380Z,5.40
2019-03-27T04:17:43.309Z,5.40
2019-03-27T04:20:11.992Z,5.40
2019-03-27T04:22:40.419Z,5.30
2019-03-27T04:25:08.931Z,5.30
2019-03-27T04:27:37.359Z,5.30
2019-03-27T04:30:07.405Z,5.30
2019-03-27T04:32:35.833Z,5.30
2019-03-27T04:35:06.385Z,5.20
2019-03-27T04:37:34.823Z,5.20
2019-03-27T04:40:04.900Z,5.20
2019-03-27T04:42:33.376Z,5.20
2019-03-27T04:45:01.947Z,5.10
2019-03-27T04:47:32.377Z,5.10
2019-03-27T04:50:00.556Z,5.10
2019-03-27T04:52:29.002Z,5.10
2019-03-27T04:54:57.451Z,5.10
2019-03-27T04:57:25.891Z,5.00
2019-03-27T04:59:54.339Z,5.00
2019-03-27T05:02:24.414Z,5.00
2019-03-27T05:04:55.835Z,5.00
2019-03-27T05:07:24.334Z,4.90
2019-03-27T05:09:52.767Z,4.90
2019-03-27T05:12:21.211Z,4.90
2019-03-27T05:14:49.659Z,4.90
2019-03-27T05:17:18.100Z,4.90
2019-03-27T05:19:46.551Z,4.90
2019-03-27T05:22:23.514Z,4.90
2019-03-27T05:24:51.961Z,4.90
2019-03-27T05:27:20.415Z,4.90
2019-03-27T05:29:48.837Z,4.90
2019-03-27T05:32:19.382Z,4.90
2019-03-27T05:34:47.455Z,4.90
2019-03-27T05:37:15.891Z,4.90
2019-03-27T05:39:44.344Z,4.90
2019-03-27T05:42:12.784Z,5.00
2019-03-27T05:44:41.231Z,5.00
2019-03-27T05:47:09.692Z,5.00
2019-03-27T05:49:38.131Z,5.00
2019-03-27T05:52:06.583Z,5.00
2019-03-27T05:54:35.033Z,5.00
2019-03-27T05:57:03.483Z,5.10
2019-03-27T05:59:31.922Z,5.10
2019-03-27T06:02:00.356Z,5.10
2019-03-27T06:04:28.812Z,5.20
2019-03-27T06:06:57.247Z,5.30
2019-03-27T06:09:25.690Z,5.60
2019-03-27T06:11:54.131Z,5.90
2019-03-27T06:14:22.572Z,6.20
2019-03-27T06:16:51.007Z,6.70
2019-03-27T06:19:19.433Z,7.20
2019-03-27T06:21:47.875Z,7.60
2019-03-27T06:24:16.303Z,8.00
2019-03-27T06:26:44.737Z,8.40
2019-03-27T06:29:16.050Z,8.70
2019-03-27T06:31:44.680Z,9.10
2019-03-27T06:34:13.163Z,9.50
2019-03-27T06:36:41.594Z,9.80
2019-03-27T06:39:10.048Z,10.00
2019-03-27T06:41:38.486Z,10.20
2019-03-27T06:44:08.659Z,10.50
2019-03-27T06:46:37.087Z,11.00
2019-03-27T06:49:05.547Z,11.30
2019-03-27T06:51:40.356Z,11.80
2019-03-27T06:54:06.951Z,12.20
2019-03-27T06:56:35.382Z,12.60
2019-03-27T06:59:03.834Z,12.80
2019-03-27T07:01:32.270Z,12.80
2019-03-27T07:04:10.544Z,12.70
2019-03-27T07:06:30.866Z,12.70
2019-03-27T07:08:59.320Z,12.60
2019-03-27T07:11:27.750Z,12.60
2019-03-27T07:13:56.193Z,12.80
2019-03-27T07:16:24.650Z,12.90
2019-03-27T07:18:53.158Z,13.00
2019-03-27T07:21:21.618Z,13.00
2019-03-27T07:23:50.063Z,13.10
2019-03-27T07:26:18.500Z,13.30
2019-03-27T07:28:46.943Z,13.40
2019-03-27T07:31:15.385Z,13.30
2019-03-27T07:33:43.835Z,13.40
2019-03-27T07:36:12.273Z,13.50
2019-03-27T07:38:40.714Z,13.60
2019-03-27T07:41:10.680Z,13.80
2019-03-27T07:43:39.118Z,13.80
2019-03-27T07:46:07.559Z,13.80
2019-03-27T07:48:38.245Z,13.80
2019-03-27T07:51:06.167Z,13.80
2019-03-27T07:53:34.622Z,13.90
2019-03-27T07:56:03.068Z,13.90
2019-03-27T07:58:31.503Z,13.80
2019-03-27T08:00:59.962Z,13.70
2019-03-27T08:03:28.403Z,13.80
2019-03-27T08:05:56.861Z,13.90
2019-03-27T08:08:25.311Z,14.10
2019-03-27T08:10:53.742Z,14.20
2019-03-27T08:13:22.191Z,14.30
2019-03-27T08:15:50.649Z,14.40
2019-03-27T08:18:19.086Z,14.30
2019-03-27T08:20:47.513Z,14.20
2019-03-27T08:23:15.962Z,14.00
2019-03-27T08:25:44.425Z,13.90
2019-03-27T08:28:12.874Z,13.70
2019-03-27T08:30:41.314Z,13.60
2019-03-27T08:33:09.765Z,13.40
2019-03-27T08:35:38.206Z,13.20
2019-03-27T08:38:06.704Z,13.10
2019-03-27T08:40:35.163Z,13.10
2019-03-27T08:43:03.603Z,13.20
2019-03-27T08:45:32.052Z,13.20
2019-03-27T08:48:00.492Z,13.10
2019-03-27T08:50:28.934Z,13.20
2019-03-27T08:52:57.562Z,13.20
2019-03-27T08:55:26.032Z,13.30
2019-03-27T08:57:54.709Z,13.50
2019-03-27T09:00:43.074Z,13.60
2019-03-27T09:03:11.517Z,13.70
2019-03-27T09:05:39.961Z,13.60
2019-03-27T09:08:08.467Z,13.70
2019-03-27T09:10:36.977Z,13.70
2019-03-27T09:13:05.409Z,13.80
2019-03-27T09:15:33.868Z,13.90
2019-03-27T09:18:02.316Z,14.00
2019-03-27T09:20:30.753Z,14.00
2019-03-27T09:22:59.203Z,14.00
2019-03-27T09:25:27.724Z,14.10
2019-03-27T09:27:56.154Z,14.10
2019-03-27T09:30:24.988Z,14.10
2019-03-27T09:32:53.507Z,13.90
2019-03-27T09:35:21.967Z,13.80
2019-03-27T09:37:50.409Z,13.80
2019-03-27T09:40:18.916Z,13.80
2019-03-27T09:42:47.358Z,13.70
2019-03-27T09:45:16.138Z,13.70
2019-03-27T09:47:44.574Z,13.80
2019-03-27T09:50:13.346Z,13.70
2019-03-27T09:52:43.027Z,13.80
2019-03-27T09:55:11.770Z,13.80
2019-03-27T09:57:40.282Z,13.90
2019-03-27T10:00:09.762Z,14.00
2019-03-27T10:02:38.205Z,14.00
2019-03-27T10:05:10.840Z,14.00
2019-03-27T10:07:39.263Z,14.00
2019-03-27T10:10:07.951Z,14.00
2019-03-27T10:12:36.402Z,14.10
2019-03-27T10:15:07.295Z,14.10
2019-03-27T10:17:35.733Z,14.00
2019-03-27T10:20:06.224Z,14.10
2019-03-27T10:22:34.656Z,14.10
2019-03-27T10:25:03.662Z,14.30
2019-03-27T10:27:32.107Z,14.30
2019-03-27T10:30:00.542Z,14.40
2019-03-27T10:32:28.981Z,14.60
2019-03-27T10:35:00.228Z,14.70
2019-03-27T10:37:28.990Z,14.90
2019-03-27T10:39:57.436Z,15.20
2019-03-27T10:42:25.871Z,15.50
2019-03-27T10:44:54.313Z,15.60
2019-03-27T10:47:22.751Z,15.70
2019-03-27T10:49:51.186Z,15.80
2019-03-27T10:52:19.630Z,16.00
2019-03-27T10:54:48.058Z,16.00
2019-03-27T10:57:16.495Z,16.10
2019-03-27T10:59:44.929Z,16.40
2019-03-27T11:02:13.383Z,16.50
2019-03-27T11:04:41.831Z,16.50
2019-03-27T11:07:10.341Z,16.50
2019-03-27T11:09:38.772Z,16.60
2019-03-27T11:12:07.211Z,16.70
2019-03-27T11:14:38.164Z,16.60
2019-03-27T11:17:05.808Z,16.60
2019-03-27T11:19:34.230Z,16.60
2019-03-27T11:22:02.711Z,16.50
2019-03-27T11:24:31.133Z,16.40
2019-03-27T11:26:59.594Z,16.40
2019-03-27T11:29:28.021Z,16.20
2019-03-27T11:31:56.468Z,16.20
2019-03-27T11:34:24.907Z,16.20
2019-03-27T11:36:53.337Z,16.20
2019-03-27T11:39:24.648Z,16.00
2019-03-27T11:41:51.950Z,16.00
2019-03-27T11:44:20.406Z,15.80
2019-03-27T11:46:48.834Z,15.80
2019-03-27T11:49:17.275Z,15.80
2019-03-27T11:51:45.715Z,15.80
2019-03-27T11:54:14.150Z,15.70
2019-03-27T11:56:42.615Z,15.70
2019-03-27T11:59:11.043Z,15.70
2019-03-27T12:01:43.478Z,15.80
2019-03-27T12:04:09.688Z,15.80
2019-03-27T12:06:38.128Z,15.80
2019-03-27T12:09:07.544Z,15.70
2019-03-27T12:11:36.147Z,15.70
2019-03-27T12:14:04.832Z,15.80
2019-03-27T12:16:33.270Z,15.80
2019-03-27T12:19:01.712Z,15.70
2019-03-27T12:21:30.147Z,15.70
2019-03-27T12:23:58.608Z,15.60
2019-03-27T12:26:27.051Z,15.60
2019-03-27T12:28:55.499Z,15.50
2019-03-27T12:31:25.891Z,15.50
2019-03-27T12:33:55.587Z,15.40
2019-03-27T12:36:24.030Z,15.40
2019-03-27T12:38:52.466Z,15.30
2019-03-27T12:41:20.990Z,15.40
2019-03-27T12:43:55.962Z,15.40
2019-03-27T12:46:25.222Z,15.40
2019-03-27T12:48:53.675Z,15.30
2019-03-27T12:51:22.201Z,15.20
2019-03-27T12:53:50.657Z,15.20
2019-03-27T12:56:19.166Z,15.20
2019-03-27T12:58:47.630Z,15.20
2019-03-27T13:01:16.079Z,15.30
2019-03-27T13:03:44.767Z,15.30
2019-03-27T13:06:14.201Z,15.30
2019-03-27T13:08:42.687Z,15.40
2019-03-27T13:11:11.129Z,15.40
2019-03-27T13:13:39.594Z,15.40
2019-03-27T13:16:08.055Z,15.40
2019-03-27T13:18:36.494Z,15.40
2019-03-27T13:21:04.943Z,15.30
2019-03-27T13:23:33.399Z,15.30
2019-03-27T13:26:01.852Z,15.20
2019-03-27T13:28:30.300Z,15.10
2019-03-27T13:30:58.730Z,15.00
2019-03-27T13:33:27.268Z,14.90
2019-03-27T13:35:55.717Z,14.80
2019-03-27T13:38:24.171Z,14.80
2019-03-27T13:40:52.616Z,14.80
2019-03-27T13:43:21.064Z,14.70
2019-03-27T13:45:49.516Z,14.70
2019-03-27T13:48:17.962Z,14.70
2019-03-27T13:50:46.419Z,14.60
2019-03-27T13:53:14.867Z,14.60
2019-03-27T13:55:43.339Z,14.60
2019-03-27T13:58:11.778Z,14.60
2019-03-27T14:00:40.215Z,14.50
2019-03-27T14:03:14.211Z,14.40
2019-03-27T14:05:42.638Z,14.40
2019-03-27T14:08:11.087Z,14.30
2019-03-27T14:10:41.092Z,14.20
2019-03-27T14:13:11.492Z,14.10
2019-03-27T14:15:39.726Z,14.00
2019-03-27T14:18:08.167Z,14.00
2019-03-27T14:20:36.626Z,13.90
2019-03-27T14:23:05.194Z,13.90
2019-03-27T14:25:33.655Z,13.80
2019-03-27T14:28:02.098Z,13.80
2019-03-27T14:30:50.493Z,13.80
2019-03-27T14:33:19.697Z,13.90
2019-03-27T14:35:48.134Z,13.90
2019-03-27T14:38:16.578Z,13.90
2019-03-27T14:40:45.011Z,14.00
2019-03-27T14:43:13.451Z,14.00
2019-03-27T14:45:41.904Z,14.10
2019-03-27T14:48:10.334Z,14.20
2019-03-27T14:50:38.772Z,14.30
2019-03-27T14:53:07.226Z,14.30
2019-03-27T14:55:36.682Z,14.40
2019-03-27T14:58:05.135Z,14.40
2019-03-27T15:00:33.576Z,14.40
2019-03-27T15:03:02.023Z,14.30
2019-03-27T15:05:30.451Z,14.30
2019-03-27T15:07:59.389Z,14.20
2019-03-27T15:10:28.814Z,14.30
2019-03-27T15:12:57.258Z,14.20
2019-03-27T15:15:25.690Z,14.20
2019-03-27T15:17:54.134Z,14.10
2019-03-27T15:20:22.754Z,14.10
2019-03-27T15:22:51.184Z,14.10
2019-03-27T15:25:21.176Z,14.00
2019-03-27T15:27:52.265Z,14.00
2019-03-27T15:30:23.306Z,14.00
2019-03-27T15:32:51.753Z,13.90
2019-03-27T15:35:20.213Z,13.90
2019-03-27T15:37:48.725Z,13.80
2019-03-27T15:40:20.241Z,13.70
2019-03-27T15:42:51.802Z,13.70
2019-03-27T15:45:20.435Z,13.70
2019-03-27T15:47:48.933Z,13.60
2019-03-27T15:50:17.473Z,13.60
2019-03-27T15:52:45.920Z,13.50
2019-03-27T15:55:14.503Z,13.50
2019-03-27T15:57:42.943Z,13.40
2019-03-27T16:00:12.606Z,13.40
2019-03-27T16:02:41.277Z,13.30
2019-03-27T16:05:09.789Z,13.20
2019-03-27T16:07:38.226Z,13.20
2019-03-27T16:10:07.309Z,13.10
2019-03-27T16:12:36.450Z,13.10
2019-03-27T16:15:09.521Z,13.10
2019-03-27T16:17:38.228Z,13.10
2019-03-27T16:20:07.501Z,13.00
2019-03-27T16:22:49.510Z,13.00
2019-03-27T16:25:08.094Z,12.90
2019-03-27T16:27:36.609Z,12.90
2019-03-27T16:30:08.177Z,12.90
2019-03-27T16:32:36.625Z,12.90
2019-03-27T16:35:07.411Z,12.80
2019-03-27T16:37:35.851Z,12.80
2019-03-27T16:40:06.330Z,12.80
2019-03-27T16:42:34.847Z,12.80
2019-03-27T16:45:05.037Z,12.80
2019-03-27T16:47:33.472Z,12.70
2019-03-27T16:50:02.811Z,12.70
2019-03-27T16:52:31.249Z,12.70
2019-03-27T16:54:59.763Z,12.60
2019-03-27T16:57:28.192Z,12.60
2019-03-27T16:59:56.629Z,12.60
2019-03-27T17:02:25.070Z,12.50
2019-03-27T17:04:53.503Z,12.50
2019-03-27T17:07:21.950Z,12.40
2019-03-27T17:09:50.423Z,12.40
2019-03-27T17:12:18.862Z,12.40
2019-03-27T17:14:47.391Z,12.30
2019-03-27T17:17:15.822Z,12.30
2019-03-27T17:19:44.258Z,12.30
2019-03-27T17:22:19.286Z,12.20
2019-03-27T17:24:43.816Z,12.20
2019-03-27T17:27:12.256Z,12.20
2019-03-27T17:29:40.713Z,12.10
2019-03-27T17:32:09.138Z,12.10
2019-03-27T17:34:37.650Z,12.00
2019-03-27T17:37:06.086Z,12.00
2019-03-27T17:39:34.528Z,11.90
2019-03-27T17:42:02.979Z,11.90
2019-03-27T17:44:31.418Z,11.80
2019-03-27T17:46:59.865Z,11.80
2019-03-27T17:49:28.298Z,11.70
2019-03-27T17:51:56.747Z,11.70
2019-03-27T17:54:25.178Z,11.60
2019-03-27T17:56:53.616Z,11.50
2019-03-27T17:59:24.716Z,11.40
2019-03-27T18:01:53.156Z,11.40
2019-03-27T18:04:21.603Z,11.40
2019-03-27T18:06:50.088Z,11.30
2019-03-27T18:09:18.540Z,11.30
2019-03-27T18:11:46.977Z,11.20
2019-03-27T18:14:15.425Z,11.10
2019-03-27T18:16:43.854Z,11.10
2019-03-27T18:19:12.296Z,11.00
2019-03-27T18:21:40.746Z,11.00
2019-03-27T18:24:09.170Z,11.00
2019-03-27T18:26:37.615Z,10.90
2019-03-27T18:29:06.065Z,10.90
2019-03-27T18:31:34.503Z,10.80
2019-03-27T18:34:03.243Z,10.80
2019-03-27T18:36:31.699Z,10.70
2019-03-27T18:39:00.144Z,10.60
2019-03-27T18:41:28.583Z,10.60
2019-03-27T18:43:57.339Z,10.50
2019-03-27T18:46:25.769Z,10.50
2019-03-27T18:48:55.002Z,10.40
2019-03-27T18:51:24.386Z,10.40
2019-03-27T18:53:59.554Z,10.30
2019-03-27T18:56:23.081Z,10.30
2019-03-27T18:58:51.521Z,10.20
2019-03-27T19:01:19.979Z,10.20
2019-03-27T19:03:48.490Z,10.10
2019-03-27T19:06:16.935Z,10.10
2019-03-27T19:08:45.386Z,10.10
2019-03-27T19:11:13.899Z,10.00
2019-03-27T19:13:42.352Z,10.00
2019-03-27T19:16:10.865Z,9.90
2019-03-27T19:18:39.334Z,9.90
2019-03-27T19:21:07.830Z,9.80
2019-03-27T19:23:36.264Z,9.80
2019-03-27T19:26:08.345Z,9.70
2019-03-27T19:28:36.795Z,9.70
2019-03-27T19:31:07.192Z,9.60
2019-03-27T19:33:40.581Z,9.60
2019-03-27T19:36:09.358Z,9.60
2019-03-27T19:38:37.809Z,9.50
2019-03-27T19:41:06.328Z,9.50
2019-03-27T19:43:34.765Z,9.40
2019-03-27T19:46:03.275Z,9.30
2019-03-27T19:48:31.819Z,9.30
2019-03-27T19:51:00.719Z,9.30
2019-03-27T19:53:29.160Z,9.20
2019-03-27T19:55:57.625Z,9.20
2019-03-27T19:58:26.101Z,9.20
2019-03-27T20:00:54.548Z,9.20
2019-03-27T20:03:22.988Z,9.10
2019-03-27T20:05:53.592Z,9.10
2019-03-27T20:08:22.029Z,9.00
2019-03-27T20:10:50.543Z,9.00
2019-03-27T20:13:19.079Z,9.00
2019-03-27T20:15:47.499Z,8.90
2019-03-27T20:18:15.952Z,8.90
2019-03-27T20:20:44.388Z,8.90
2019-03-27T20:23:15.626Z,8.80
2019-03-27T20:25:44.163Z,8.80
2019-03-27T20:28:12.611Z,8.80
2019-03-27T20:30:41.055Z,8.70
2019-03-27T20:33:09.508Z,8.70
2019-03-27T20:35:37.938Z,8.60
2019-03-27T20:38:08.271Z,8.60
2019-03-27T20:40:36.774Z,8.60
2019-03-27T20:43:05.230Z,8.60
2019-03-27T20:45:33.735Z,8.60
2019-03-27T20:48:02.259Z,8.60
2019-03-27T20:50:30.722Z,8.60
2019-03-27T20:52:59.166Z,8.50
2019-03-27T20:55:30.628Z,8.50
2019-03-27T20:57:59.043Z,8.50
2019-03-27T21:00:27.478Z,8.60
2019-03-27T21:02:57.418Z,8.60
2019-03-27T21:05:27.233Z,8.60
2019-03-27T21:07:55.684Z,8.60
2019-03-27T21:10:28.521Z,8.60
2019-03-27T21:12:56.976Z,8.60
2019-03-27T21:15:25.429Z,8.60
2019-03-27T21:17:53.883Z,8.60
2019-03-27T21:20:22.319Z,8.60
2019-03-27T21:22:50.758Z,8.60
2019-03-27T21:25:19.198Z,8.60
2019-03-27T21:27:49.917Z,8.60
2019-03-27T21:30:18.107Z,8.60
2019-03-27T21:32:46.596Z,8.50
2019-03-27T21:35:16.676Z,8.60
2019-03-27T21:38:04.795Z,8.60
2019-03-27T21:40:33.365Z,8.50
2019-03-27T21:43:02.029Z,8.50
2019-03-27T21:45:32.356Z,8.60
2019-03-27T21:48:01.199Z,8.50
2019-03-27T21:50:30.008Z,8.60
2019-03-27T21:53:00.960Z,8.50
2019-03-27T21:55:41.883Z,8.50
2019-03-27T21:57:59.032Z,8.50
2019-03-27T22:00:38.242Z,8.50
2019-03-27T22:03:07.279Z,8.50
2019-03-27T22:05:35.841Z,8.40
2019-03-27T22:08:04.674Z,8.50
2019-03-27T22:10:33.761Z,8.40
2019-03-27T22:13:02.315Z,8.40
2019-03-27T22:15:30.894Z,8.40
2019-03-27T22:18:02.477Z,8.40
2019-03-27T22:20:31.028Z,8.40
2019-03-27T22:22:59.608Z,8.30
2019-03-27T22:25:35.802Z,8.30
2019-03-27T22:27:58.381Z,8.30
2019-03-27T22:30:26.965Z,8.30
2019-03-27T22:32:55.528Z,8.30
2019-03-27T22:35:24.099Z,8.30
2019-03-27T22:37:52.672Z,8.30
2019-03-27T22:40:21.271Z,8.30
2019-03-27T22:42:49.814Z,8.30
2019-03-27T22:45:18.377Z,8.30
2019-03-27T22:47:46.973Z,8.30
2019-03-27T22:50:15.496Z,8.30
2019-03-27T22:52:44.074Z,8.30
2019-03-27T22:55:12.716Z,8.30
2019-03-27T22:57:41.297Z,8.30
2019-03-27T23:00:13.712Z,8.30
2019-03-27T23:02:42.407Z,8.30
2019-03-27T23:05:15.182Z,8.30
2019-03-27T23:07:41.345Z,8.20
2019-03-27T23:10:10.174Z,8.30
2019-03-27T23:12:41.656Z,8.30
2019-03-27T23:15:10.653Z,8.30
2019-03-27T23:17:39.213Z,8.30
2019-03-27T23:20:08.220Z,8.20
2019-03-27T23:22:39.355Z,8.20
2019-03-27T23:25:08.577Z,8.20
2019-03-27T23:27:37.189Z,8.20
2019-03-27T23:30:07.837Z,8.20
2019-03-27T23:32:36.673Z,8.20
2019-03-27T23:35:07.721Z,8.20
2019-03-27T23:37:36.283Z,8.20
2019-03-27T23:40:06.585Z,8.20
2019-03-27T23:42:35.141Z,8.20
2019-03-27T23:45:05.257Z,8.20
2019-03-27T23:47:33.821Z,8.20
2019-03-27T23:50:02.417Z,8.20
2019-03-27T23:52:30.970Z,8.20
2019-03-27T23:54:59.547Z,8.20
2019-03-27T23:57:28.103Z,8.20
2019-03-27T23:59:56.684Z,8.20
